ADDS TAF Board (Experimental) INFO Settings
IDs: Format: Expanded Condensed

KSTL - St Louis/Lambert Int, MO, US

Issued at 2047 UTC 26 Aug 2016
Updated at 2321 UTC 26 Aug 2016
Time2251Z 27/00Z 27/01Z 27/02Z 27/03Z 27/04Z 27/05Z 27/06Z 27/07Z 27/08Z 27/09Z 27/10Z 27/11Z 27/12Z
Type OBS PRVL PRVL PRVL PRVL PRVL PRVL PRVL PRVL PRVL PRVL PRVL PRVL PRVL
VIS 10 >6 >6 >6 >6 >6 >6 >6 >6 >6 >6 >6 >6 >6
CIG 150 40 120 120 120 120 120 250 250 250 250 250 250 250
Cover BKN BKN BKN BKN BKN BKN BKN BKN BKN BKN BKN BKN BKN BKN
FltCat VFR VFR VFR VFR VFR VFR VFR VFR VFR VFR VFR VFR VFR VFR
WX -- VCTS -- -- -- -- -- -- -- -- -- -- -- --
WDir 50 80 VRB VRB VRB VRB VRB 180 180 180 180 180 180 180
WSpd 5 6 4 4 4 4 4 5 5 5 5 5 5 5
WGst -- -- -- -- -- -- -- -- -- -- -- -- -- --
R06/24
XWnd 1 -2 VRB VRB VRB VRB VRB -4 -4 -4 -4 -4 -4 -4
HWnd 5 6 VRB VRB VRB VRB VRB -2 -2 -2 -2 -2 -2 -2
R11/29
XWnd 5 4 VRB VRB VRB VRB VRB -4 -4 -4 -4 -4 -4 -4
HWnd 2 4 VRB VRB VRB VRB VRB 3 3 3 3 3 3 3
R12/30
XWnd 5 4 VRB VRB VRB VRB VRB -4 -4 -4 -4 -4 -4 -4
HWnd 2 4 VRB VRB VRB VRB VRB 3 3 3 3 3 3 3

Raw TAF
KSTL 262047Z 2621/2724 VRB05KT P6SM SCT030 BKN150
  FM262230 08006KT P6SM VCTS BKN040CB BKN150
  FM270100 VRB04KT P6SM SCT050 BKN120
  FM270600 18005KT P6SM BKN250


Raw METAR
KSTL 262251Z 05005KT 10SM SCT027 SCT100 BKN150 BKN250 30/24 A3004 RMK AO2 LTG DSNT E AND SE SLP159 T03000239
KSTL 262151Z 34004KT 10SM FEW024 SCT120 BKN150 BKN250 31/23 A3003 RMK AO2 LTG DSNT E SLP155 T03060233
KSTL 262051Z VRB03KT 10SM SCT024 BKN140 OVC250 31/23 A3004 RMK AO2 SLP160 T03060228 56016

METAR Board
Radar Display
Forecast Discussion

TAF Board Legend

Potential Impact
Threat None Slight Moderate High
Visibility (sm) ≥5.1 5.1>X≥3 3>X≥1 <1
Ceiling (100 ft) ≥30.1 30.1>X≥10 10>X≥5 <5
Wind Speed (kt) <10 10≤X<20 20≤X<30 ≥30
Wind Gust (kt) <15 15≤X<25 25≤X<35 ≥35
Weather No Wx Reported VCTS,-TS,-FZRA,SN TS,FZRA +TS,+FZRA,+SN